createdAt,value
2023-12-18T00:02:13.674Z,15.90
2023-12-18T00:04:41.530Z,16.73
2023-12-18T00:07:09.395Z,16.83
2023-12-18T00:09:37.304Z,19.40
2023-12-18T00:12:05.782Z,16.83
2023-12-18T00:14:33.715Z,17.93
2023-12-18T00:17:01.594Z,17.33
2023-12-18T00:19:31.057Z,18.03
2023-12-18T00:21:59.003Z,18.23
2023-12-18T00:24:26.902Z,17.40
2023-12-18T00:26:54.855Z,17.53
2023-12-18T00:29:22.754Z,17.67
2023-12-18T00:31:50.644Z,16.87
2023-12-18T00:34:18.589Z,17.60
2023-12-18T00:36:47.914Z,17.93
2023-12-18T00:39:16.950Z,17.07
2023-12-18T00:41:45.098Z,17.40
2023-12-18T00:44:13.186Z,18.03
2023-12-18T00:46:41.115Z,19.23
2023-12-18T00:49:09.273Z,18.77
2023-12-18T00:51:37.381Z,20.53
2023-12-18T00:54:06.861Z,20.23
2023-12-18T00:56:35.002Z,19.30
2023-12-18T00:59:02.855Z,19.67
2023-12-18T01:01:30.811Z,19.27
2023-12-18T01:03:58.817Z,19.27
2023-12-18T01:06:26.789Z,18.53
2023-12-18T01:08:54.637Z,20.87
2023-12-18T01:11:23.937Z,19.53
2023-12-18T01:13:51.872Z,19.40
2023-12-18T01:16:19.774Z,17.33
2023-12-18T01:18:48.144Z,17.00
2023-12-18T01:21:16.216Z,16.17
2023-12-18T01:23:44.135Z,15.80
2023-12-18T01:26:11.981Z,15.30
2023-12-18T01:28:41.630Z,16.20
2023-12-18T01:31:09.720Z,15.40
2023-12-18T01:33:37.979Z,15.53
2023-12-18T01:36:06.849Z,15.10
2023-12-18T01:38:34.732Z,15.73
2023-12-18T01:41:02.628Z,16.00
2023-12-18T01:43:30.597Z,17.00
2023-12-18T01:46:00.858Z,17.23
2023-12-18T01:48:29.445Z,18.73
2023-12-18T01:50:58.160Z,19.37
2023-12-18T01:53:28.488Z,19.90
2023-12-18T01:55:57.322Z,18.93
2023-12-18T01:58:25.623Z,20.07
2023-12-18T02:00:53.941Z,19.73
2023-12-18T02:03:26.233Z,20.33
2023-12-18T02:05:54.945Z,19.60
2023-12-18T02:08:23.288Z,20.97
2023-12-18T02:10:53.209Z,22.40
2023-12-18T02:13:21.087Z,19.37
2023-12-18T02:15:49.009Z,19.43
2023-12-18T02:18:17.018Z,20.63
2023-12-18T02:20:47.487Z,20.20
2023-12-18T02:23:16.769Z,20.03
2023-12-18T02:25:44.660Z,20.67
2023-12-18T02:28:13.883Z,21.37
2023-12-18T02:30:41.767Z,20.73
2023-12-18T02:33:09.753Z,21.07
2023-12-18T02:35:37.893Z,19.57
2023-12-18T02:38:06.011Z,19.97
2023-12-18T02:40:36.617Z,19.93
2023-12-18T02:43:04.763Z,18.73
2023-12-18T02:45:32.886Z,18.27
2023-12-18T02:48:00.816Z,18.80
2023-12-18T02:50:28.664Z,20.50
2023-12-18T02:52:56.483Z,19.20
2023-12-18T02:55:24.379Z,19.40
2023-12-18T02:57:53.651Z,17.27
2023-12-18T03:00:21.632Z,18.63
2023-12-18T03:02:49.590Z,19.67
2023-12-18T03:05:17.624Z,18.70
2023-12-18T03:07:45.480Z,18.20
2023-12-18T03:10:13.358Z,19.57
2023-12-18T03:12:41.277Z,19.37
2023-12-18T03:15:11.750Z,20.43
2023-12-18T03:17:39.982Z,19.13
2023-12-18T03:20:09.252Z,20.10
2023-12-18T03:22:37.092Z,19.73
2023-12-18T03:25:05.989Z,18.63
2023-12-18T03:27:33.971Z,18.00
2023-12-18T03:30:02.130Z,20.43
2023-12-18T03:32:31.587Z,19.07
2023-12-18T03:34:59.470Z,18.03
2023-12-18T03:37:27.481Z,18.10
2023-12-18T03:39:55.321Z,18.00
2023-12-18T03:42:23.652Z,18.30
2023-12-18T03:44:51.554Z,17.83
2023-12-18T03:47:19.473Z,16.73
2023-12-18T03:49:48.896Z,16.47
2023-12-18T03:52:16.912Z,17.97
2023-12-18T03:54:44.929Z,16.53
2023-12-18T03:57:12.929Z,17.73
2023-12-18T03:59:40.798Z,18.80
2023-12-18T04:02:08.676Z,16.90
2023-12-18T04:04:36.651Z,17.23
2023-12-18T04:07:06.054Z,17.20
2023-12-18T04:09:34.210Z,18.17
2023-12-18T04:12:02.106Z,17.87
2023-12-18T04:14:29.961Z,16.97
2023-12-18T04:16:57.833Z,15.30
2023-12-18T04:19:25.809Z,17.37
2023-12-18T04:21:53.693Z,18.10
2023-12-18T04:24:22.981Z,17.07
2023-12-18T04:26:50.862Z,18.30
2023-12-18T04:29:19.234Z,18.20
2023-12-18T04:31:47.153Z,17.83
2023-12-18T04:34:15.167Z,17.67
2023-12-18T04:36:43.329Z,16.43
2023-12-18T04:39:12.176Z,17.77
2023-12-18T04:41:41.507Z,16.40
2023-12-18T04:44:09.403Z,16.10
2023-12-18T04:46:37.790Z,16.07
2023-12-18T04:49:06.277Z,16.73
2023-12-18T04:51:34.658Z,15.87
2023-12-18T04:54:02.630Z,16.63
2023-12-18T04:56:30.475Z,15.30
2023-12-18T04:58:59.655Z,17.27
2023-12-18T05:01:27.550Z,17.03
2023-12-18T05:03:55.523Z,16.10
2023-12-18T05:06:24.894Z,15.80
2023-12-18T05:08:53.236Z,16.70
2023-12-18T05:11:22.854Z,16.77
2023-12-18T05:13:50.917Z,17.90
2023-12-18T05:16:20.757Z,15.63
2023-12-18T05:18:48.767Z,16.27
2023-12-18T05:21:16.726Z,15.70
2023-12-18T05:23:46.875Z,16.00
2023-12-18T05:26:14.842Z,15.80
2023-12-18T05:28:42.680Z,16.40
2023-12-18T05:31:11.588Z,16.43
2023-12-18T05:33:42.073Z,15.20
2023-12-18T05:36:10.359Z,15.93
2023-12-18T05:38:38.171Z,24.53
2023-12-18T05:41:06.015Z,27.90
2023-12-18T05:43:33.809Z,36.33
2023-12-18T05:46:01.671Z,34.73
2023-12-18T05:48:29.675Z,39.77
2023-12-18T05:50:58.962Z,42.77
2023-12-18T05:53:27.024Z,42.70
2023-12-18T05:55:54.972Z,45.50
2023-12-18T05:58:22.857Z,42.93
2023-12-18T06:00:50.958Z,41.10
2023-12-18T06:03:18.937Z,37.30
2023-12-18T06:05:47.614Z,34.77
2023-12-18T06:08:17.379Z,31.93
2023-12-18T06:10:45.225Z,31.23
2023-12-18T06:13:13.303Z,26.67
2023-12-18T06:15:41.237Z,26.43
2023-12-18T06:18:09.612Z,24.23
2023-12-18T06:20:38.836Z,23.93
2023-12-18T06:23:06.860Z,24.37
2023-12-18T06:25:36.103Z,23.30
2023-12-18T06:28:07.058Z,25.57
2023-12-18T06:30:34.978Z,24.07
2023-12-18T06:33:02.970Z,23.80
2023-12-18T06:35:30.920Z,23.03
2023-12-18T06:37:58.779Z,22.73
2023-12-18T06:40:26.605Z,21.80
2023-12-18T06:42:55.898Z,20.40
2023-12-18T06:45:23.841Z,20.33
2023-12-18T06:47:51.778Z,20.53
2023-12-18T06:50:19.756Z,17.67
2023-12-18T06:52:47.660Z,18.47
2023-12-18T06:55:15.729Z,17.30
2023-12-18T06:57:43.698Z,16.97
2023-12-18T07:00:13.990Z,16.00
2023-12-18T07:02:42.053Z,16.33
2023-12-18T07:05:10.721Z,16.90
2023-12-18T07:07:38.689Z,16.07
2023-12-18T07:10:07.828Z,14.70
2023-12-18T07:12:35.824Z,15.83
2023-12-18T07:15:04.196Z,14.90
2023-12-18T07:17:33.513Z,14.83
2023-12-18T07:20:01.474Z,14.60
2023-12-18T07:22:29.325Z,14.43
2023-12-18T07:24:57.324Z,14.10
2023-12-18T07:27:26.518Z,15.00
2023-12-18T07:29:54.602Z,13.67
2023-12-18T07:32:23.737Z,15.97
2023-12-18T07:34:53.210Z,15.40
2023-12-18T07:37:21.081Z,14.37
2023-12-18T07:39:48.951Z,14.37
2023-12-18T07:42:16.841Z,14.13
2023-12-18T07:44:44.675Z,15.20
2023-12-18T07:47:12.466Z,15.87
2023-12-18T07:49:40.416Z,14.47
2023-12-18T07:52:09.861Z,15.67
2023-12-18T07:54:37.816Z,13.53
2023-12-18T07:57:05.929Z,16.37
2023-12-18T07:59:34.010Z,15.60
2023-12-18T08:02:01.904Z,14.37
2023-12-18T08:04:29.842Z,15.37
2023-12-18T08:06:57.828Z,14.90
2023-12-18T08:09:27.551Z,15.90
2023-12-18T08:11:56.882Z,15.93
2023-12-18T08:14:24.802Z,15.90
2023-12-18T08:16:52.846Z,15.33
2023-12-18T08:19:21.235Z,15.87
2023-12-18T08:21:49.308Z,15.80
2023-12-18T08:24:17.291Z,15.97
2023-12-18T08:26:49.762Z,16.40
2023-12-18T08:29:17.621Z,16.60
2023-12-18T08:31:45.551Z,16.57
2023-12-18T08:34:15.157Z,17.00
2023-12-18T08:36:43.114Z,16.13
2023-12-18T08:39:11.874Z,16.60
2023-12-18T08:41:42.486Z,16.43
2023-12-18T08:44:12.205Z,17.00
2023-12-18T08:46:40.330Z,18.60
2023-12-18T08:49:09.187Z,16.37
2023-12-18T08:51:37.145Z,19.30
2023-12-18T08:54:06.567Z,18.30
2023-12-18T08:56:34.671Z,16.30
2023-12-18T08:59:02.602Z,16.83
2023-12-18T09:01:31.910Z,15.33
2023-12-18T09:04:00.182Z,15.40
2023-12-18T09:06:28.216Z,16.80
2023-12-18T09:08:57.066Z,17.50
2023-12-18T09:11:25.473Z,17.83
2023-12-18T09:13:53.394Z,15.00
2023-12-18T09:16:21.299Z,14.17
2023-12-18T09:18:50.698Z,14.83
2023-12-18T09:21:18.642Z,14.87
2023-12-18T09:23:46.759Z,16.43
2023-12-18T09:26:14.699Z,15.90
2023-12-18T09:28:42.876Z,15.20
2023-12-18T09:31:10.964Z,14.10
2023-12-18T09:33:39.322Z,14.63
2023-12-18T09:36:10.195Z,13.40
2023-12-18T09:38:39.047Z,12.83
2023-12-18T09:41:06.963Z,11.40
2023-12-18T09:43:34.880Z,11.77
2023-12-18T09:46:03.568Z,12.67
2023-12-18T09:48:31.595Z,11.53
2023-12-18T09:51:00.069Z,13.70
2023-12-18T09:53:29.926Z,14.93
2023-12-18T09:55:58.955Z,15.80
2023-12-18T09:58:27.327Z,14.60
2023-12-18T10:00:55.332Z,15.00
2023-12-18T10:03:23.600Z,14.83
2023-12-18T10:05:51.607Z,17.27
2023-12-18T10:08:19.771Z,15.13
2023-12-18T10:10:48.970Z,14.13
2023-12-18T10:13:16.808Z,14.83
2023-12-18T10:15:44.822Z,15.20
2023-12-18T10:18:15.416Z,16.03
2023-12-18T10:20:44.426Z,14.93
2023-12-18T10:23:14.702Z,14.03
2023-12-18T10:25:42.635Z,13.60
2023-12-18T10:28:14.895Z,14.27
2023-12-18T10:30:42.891Z,13.83
2023-12-18T10:33:12.203Z,14.23
2023-12-18T10:35:41.429Z,12.93
2023-12-18T10:38:10.414Z,14.33
2023-12-18T10:40:39.833Z,14.37
2023-12-18T10:43:14.966Z,15.43
2023-12-18T10:45:43.503Z,15.07
2023-12-18T10:48:12.158Z,14.80
2023-12-18T10:50:40.605Z,13.63
2023-12-18T10:53:10.615Z,14.27
2023-12-18T10:55:39.868Z,13.70
2023-12-18T10:58:08.345Z,13.67
2023-12-18T11:00:38.595Z,14.43
2023-12-18T11:03:07.571Z,13.47
2023-12-18T11:05:36.093Z,15.07
2023-12-18T11:08:05.185Z,13.60
2023-12-18T11:10:33.132Z,14.57
2023-12-18T11:13:09.153Z,13.63
2023-12-18T11:15:43.968Z,14.30
2023-12-18T11:18:23.997Z,13.47
2023-12-18T11:20:53.193Z,12.40
2023-12-18T11:23:21.080Z,12.50
2023-12-18T11:25:52.776Z,12.17
2023-12-18T11:28:25.825Z,11.00
2023-12-18T11:31:02.440Z,12.20
2023-12-18T11:33:39.174Z,10.67
2023-12-18T11:36:13.762Z,10.63
2023-12-18T11:38:43.274Z,15.70
2023-12-18T11:41:40.780Z,12.70
2023-12-18T11:44:09.817Z,10.60
2023-12-18T11:46:39.493Z,11.03
2023-12-18T11:49:08.305Z,10.73
2023-12-18T11:51:36.843Z,10.27
2023-12-18T11:54:05.161Z,9.60
2023-12-18T11:56:40.956Z,10.30
2023-12-18T11:59:09.393Z,9.60
2023-12-18T12:01:39.336Z,9.47
2023-12-18T12:04:07.602Z,9.30
2023-12-18T12:06:36.114Z,9.00
2023-12-18T12:09:04.106Z,9.80
2023-12-18T12:11:32.405Z,15.33
2023-12-18T12:14:00.380Z,18.73
2023-12-18T12:16:28.442Z,17.73
2023-12-18T12:18:59.338Z,16.43
2023-12-18T12:21:34.702Z,14.17
2023-12-18T12:24:07.076Z,12.73
2023-12-18T12:26:35.091Z,12.07
2023-12-18T12:29:02.976Z,11.43
2023-12-18T12:31:33.572Z,10.70
2023-12-18T12:34:03.004Z,10.80
2023-12-18T12:36:34.583Z,9.77
2023-12-18T12:39:06.665Z,10.90
2023-12-18T12:41:35.170Z,10.33
2023-12-18T12:44:03.216Z,9.33
2023-12-18T12:46:35.743Z,8.40
2023-12-18T12:49:11.428Z,8.23
2023-12-18T12:51:39.800Z,8.33
2023-12-18T12:54:08.007Z,7.37
2023-12-18T12:56:35.933Z,7.47
2023-12-18T12:59:04.978Z,9.10
2023-12-18T13:01:32.938Z,8.87
2023-12-18T13:04:01.024Z,8.53
2023-12-18T13:06:30.266Z,8.67
2023-12-18T13:08:59.264Z,10.60
2023-12-18T13:11:28.085Z,10.07
2023-12-18T13:14:05.459Z,9.07
2023-12-18T13:16:39.621Z,9.20
2023-12-18T13:19:07.594Z,9.27
2023-12-18T13:21:38.689Z,9.67
2023-12-18T13:24:07.249Z,9.60
2023-12-18T13:26:35.078Z,8.77
2023-12-18T13:29:02.923Z,8.47
2023-12-18T13:31:32.178Z,8.10
2023-12-18T13:34:00.424Z,8.60
2023-12-18T13:36:28.522Z,9.30
2023-12-18T13:38:58.227Z,8.43
2023-12-18T13:41:30.011Z,8.80
2023-12-18T13:43:57.930Z,7.77
2023-12-18T13:46:25.819Z,8.47
2023-12-18T13:48:53.911Z,8.83
2023-12-18T13:51:21.911Z,8.43
2023-12-18T13:53:49.796Z,8.73
2023-12-18T13:56:19.018Z,8.67
2023-12-18T13:58:46.849Z,8.13
2023-12-18T14:01:14.732Z,8.47
2023-12-18T14:03:43.828Z,8.90
2023-12-18T14:06:12.011Z,8.40
2023-12-18T14:08:41.307Z,8.97
2023-12-18T14:11:09.212Z,9.37
2023-12-18T14:13:38.565Z,9.10
2023-12-18T14:16:07.609Z,9.67
2023-12-18T14:18:37.388Z,10.03
2023-12-18T14:21:05.781Z,10.37
2023-12-18T14:23:33.647Z,9.80
2023-12-18T14:26:01.988Z,10.03
2023-12-18T14:28:32.016Z,10.37
2023-12-18T14:31:01.463Z,10.03
2023-12-18T14:33:29.592Z,9.47
2023-12-18T14:35:58.128Z,9.43
2023-12-18T14:38:26.732Z,9.43
2023-12-18T14:40:54.658Z,9.63
2023-12-18T14:43:22.485Z,10.33
2023-12-18T14:45:50.437Z,9.57
2023-12-18T14:48:23.334Z,10.57
2023-12-18T14:50:57.437Z,10.60
2023-12-18T14:53:25.300Z,10.53
2023-12-18T14:55:54.249Z,11.43
2023-12-18T14:58:22.286Z,11.07
2023-12-18T15:00:50.280Z,11.33
2023-12-18T15:03:19.676Z,10.93
2023-12-18T15:05:49.797Z,10.37
2023-12-18T15:08:18.128Z,11.87
2023-12-18T15:10:46.288Z,11.53
2023-12-18T15:13:14.243Z,12.13
2023-12-18T15:15:42.231Z,12.33
2023-12-18T15:18:10.267Z,12.10
2023-12-18T15:20:39.599Z,13.43
2023-12-18T15:23:07.466Z,13.77
2023-12-18T15:25:35.311Z,13.27
2023-12-18T15:28:03.187Z,14.47
2023-12-18T15:30:31.102Z,13.90
2023-12-18T15:32:59.095Z,14.13
2023-12-18T15:35:26.935Z,14.70
2023-12-18T15:37:56.898Z,13.93
2023-12-18T15:40:24.878Z,13.20
2023-12-18T15:42:52.808Z,13.13
2023-12-18T15:45:20.736Z,14.80
2023-12-18T15:47:49.048Z,14.50
2023-12-18T15:50:17.349Z,14.10
2023-12-18T15:52:45.745Z,16.10
2023-12-18T15:55:15.190Z,16.17
2023-12-18T15:57:43.152Z,17.83
2023-12-18T16:00:12.098Z,17.80
2023-12-18T16:02:40.208Z,16.83
2023-12-18T16:05:08.874Z,17.73
2023-12-18T16:07:38.851Z,17.80
2023-12-18T16:10:07.622Z,18.47
2023-12-18T16:12:37.022Z,15.53
2023-12-18T16:15:05.475Z,15.17
2023-12-18T16:17:33.881Z,15.53
2023-12-18T16:20:01.799Z,15.37
2023-12-18T16:22:29.658Z,15.40
2023-12-18T16:24:57.524Z,16.23
2023-12-18T16:27:25.501Z,16.03
2023-12-18T16:29:57.514Z,16.60
2023-12-18T16:32:25.508Z,16.17
2023-12-18T16:34:53.727Z,17.60
2023-12-18T16:37:22.551Z,17.40
2023-12-18T16:39:50.451Z,16.67
2023-12-18T16:42:19.037Z,18.60
2023-12-18T16:44:47.108Z,17.90
2023-12-18T16:47:17.511Z,18.97
2023-12-18T16:49:45.473Z,18.90
2023-12-18T16:52:13.439Z,18.93
2023-12-18T16:54:41.290Z,18.37
2023-12-18T16:57:09.176Z,18.83
2023-12-18T16:59:37.122Z,20.20
2023-12-18T17:02:05.445Z,21.40
2023-12-18T17:04:35.317Z,23.60
2023-12-18T17:07:03.285Z,25.67
2023-12-18T17:09:31.194Z,24.37
2023-12-18T17:11:59.050Z,23.03
2023-12-18T17:14:26.875Z,23.77
2023-12-18T17:16:56.100Z,23.37
2023-12-18T17:19:23.977Z,22.17
2023-12-18T17:21:53.309Z,22.07
2023-12-18T17:24:21.200Z,22.53
2023-12-18T17:26:49.486Z,22.70
2023-12-18T17:29:18.431Z,24.33
2023-12-18T17:31:46.519Z,23.80
2023-12-18T17:34:14.498Z,24.17
2023-12-18T17:36:42.553Z,25.47
2023-12-18T17:39:12.273Z,27.30
2023-12-18T17:41:40.179Z,28.47
2023-12-18T17:44:08.171Z,30.47
2023-12-18T17:46:36.017Z,30.17
2023-12-18T17:49:04.057Z,28.97
2023-12-18T17:51:31.920Z,30.47
2023-12-18T17:54:00.717Z,31.83
2023-12-18T17:56:30.983Z,32.10
2023-12-18T17:58:58.844Z,30.17
2023-12-18T18:01:26.807Z,30.97
2023-12-18T18:03:54.820Z,28.60
2023-12-18T18:06:23.019Z,30.73
2023-12-18T18:08:50.971Z,31.60
2023-12-18T18:11:19.057Z,32.40
2023-12-18T18:13:48.293Z,32.13
2023-12-18T18:16:17.877Z,33.97
2023-12-18T18:18:46.056Z,33.20
2023-12-18T18:21:17.491Z,33.47
2023-12-18T18:23:45.397Z,34.33
2023-12-18T18:26:13.333Z,34.87
2023-12-18T18:28:41.847Z,32.33
2023-12-18T18:31:11.471Z,34.27
2023-12-18T18:33:41.467Z,35.20
2023-12-18T18:36:10.029Z,31.97
2023-12-18T18:38:38.185Z,34.53
2023-12-18T18:41:06.163Z,33.30
2023-12-18T18:43:34.056Z,32.03
2023-12-18T18:46:02.054Z,32.30
2023-12-18T18:48:31.368Z,34.73
2023-12-18T18:50:59.911Z,34.67
2023-12-18T18:53:27.866Z,34.80
2023-12-18T18:55:56.470Z,33.83
2023-12-18T18:58:25.948Z,34.03
2023-12-18T19:00:54.775Z,32.80
2023-12-18T19:03:22.751Z,34.43
2023-12-18T19:05:52.063Z,35.57
2023-12-18T19:08:21.941Z,35.27
2023-12-18T19:10:50.091Z,35.00
2023-12-18T19:13:19.071Z,35.13
2023-12-18T19:15:48.136Z,34.03
2023-12-18T19:18:16.336Z,36.23
2023-12-18T19:20:44.351Z,36.57
2023-12-18T19:23:14.233Z,35.73
2023-12-18T19:25:42.129Z,34.20
2023-12-18T19:28:10.118Z,34.23
2023-12-18T19:30:38.196Z,35.37
2023-12-18T19:33:06.334Z,36.00
2023-12-18T19:35:34.624Z,35.90
2023-12-18T19:38:02.524Z,34.97
2023-12-18T19:40:31.843Z,34.77
2023-12-18T19:42:59.858Z,35.73
2023-12-18T19:45:26.803Z,36.87
2023-12-18T19:47:54.675Z,36.30
2023-12-18T19:50:22.796Z,36.57
2023-12-18T19:52:50.782Z,35.60
2023-12-18T19:55:18.652Z,37.57
2023-12-18T19:57:48.289Z,36.47
2023-12-18T20:00:17.002Z,36.90
2023-12-18T20:02:45.367Z,38.17
2023-12-18T20:05:13.471Z,36.33
2023-12-18T20:07:41.477Z,36.73
2023-12-18T20:10:11.661Z,38.33
2023-12-18T20:12:39.753Z,36.43
2023-12-18T20:15:10.556Z,35.60
2023-12-18T20:17:38.519Z,37.33
2023-12-18T20:20:06.652Z,37.57
2023-12-18T20:22:34.599Z,39.00
2023-12-18T20:25:02.640Z,37.10
2023-12-18T20:27:31.785Z,40.73
2023-12-18T20:29:59.638Z,38.10
2023-12-18T20:32:28.891Z,38.67
2023-12-18T20:34:56.855Z,38.70
2023-12-18T20:37:24.708Z,37.83
2023-12-18T20:39:52.646Z,39.47
2023-12-18T20:42:20.520Z,40.90
2023-12-18T20:44:48.367Z,38.67
2023-12-18T20:47:16.185Z,42.03
2023-12-18T20:49:45.670Z,39.77
2023-12-18T20:52:13.605Z,41.30
2023-12-18T20:54:41.504Z,40.67
2023-12-18T20:57:09.370Z,41.37
2023-12-18T21:02:10.374Z,42.90
2023-12-18T21:04:38.351Z,50.13
2023-12-18T21:07:09.029Z,54.50
2023-12-18T21:09:37.002Z,48.57
2023-12-18T21:12:05.237Z,49.20
2023-12-18T21:14:35.575Z,49.93
2023-12-18T21:17:04.016Z,46.87
2023-12-18T21:19:31.984Z,45.00
2023-12-18T21:22:02.150Z,44.40
2023-12-18T21:24:33.519Z,44.67
2023-12-18T21:27:01.792Z,46.57
2023-12-18T21:29:30.587Z,42.70
2023-12-18T21:31:58.545Z,43.80
2023-12-18T21:34:26.873Z,44.13
2023-12-18T21:36:54.856Z,44.80
2023-12-18T21:39:22.744Z,45.07
2023-12-18T21:41:51.988Z,43.63
2023-12-18T21:44:19.801Z,43.17
2023-12-18T21:46:47.694Z,42.27
2023-12-18T21:49:15.749Z,43.30
2023-12-18T21:51:44.468Z,44.17
2023-12-18T21:54:12.481Z,44.10
2023-12-18T21:56:40.401Z,45.03
2023-12-18T21:59:09.616Z,47.97
2023-12-18T22:01:39.163Z,49.87
2023-12-18T22:04:08.161Z,48.30
2023-12-18T22:06:37.469Z,47.90
2023-12-18T22:09:05.505Z,45.23
2023-12-18T22:11:33.336Z,42.00
2023-12-18T22:14:01.182Z,42.30
2023-12-18T22:16:30.354Z,42.80
2023-12-18T22:18:58.308Z,41.47
2023-12-18T22:21:26.192Z,39.00
2023-12-18T22:23:54.131Z,40.60
2023-12-18T22:26:22.019Z,37.53
2023-12-18T22:28:49.907Z,39.87
2023-12-18T22:31:17.917Z,40.77
2023-12-18T22:33:47.312Z,38.07
2023-12-18T22:36:15.194Z,36.73
2023-12-18T22:38:44.437Z,36.63
2023-12-18T22:41:13.744Z,36.63
2023-12-18T22:43:41.887Z,38.13
2023-12-18T22:46:09.851Z,36.90
2023-12-18T22:48:37.856Z,37.70
2023-12-18T22:51:07.567Z,35.23
2023-12-18T22:53:35.558Z,34.30
2023-12-18T22:56:03.389Z,34.77
2023-12-18T22:58:31.264Z,34.67
2023-12-18T23:00:59.124Z,33.63
2023-12-18T23:03:27.936Z,33.60
2023-12-18T23:05:55.863Z,33.67
2023-12-18T23:08:25.126Z,32.97
2023-12-18T23:10:53.599Z,32.97
2023-12-18T23:13:22.549Z,32.20
2023-12-18T23:15:50.515Z,30.93
2023-12-18T23:18:21.419Z,31.20
2023-12-18T23:20:49.407Z,32.87
2023-12-18T23:23:17.252Z,30.23
2023-12-18T23:25:46.410Z,33.40
2023-12-18T23:28:14.542Z,32.87
2023-12-18T23:30:43.401Z,34.37
2023-12-18T23:33:15.433Z,36.17
